sensor_id;sensor_type;location;lat;lon;timestamp;temperature;humidity
20364;DHT22;10340;53.664;9.908;2022-08-19T00:01:39;19.30;99.90
20364;DHT22;10340;53.664;9.908;2022-08-19T00:04:08;19.30;99.90
20364;DHT22;10340;53.664;9.908;2022-08-19T00:06:36;19.30;99.90
20364;DHT22;10340;53.664;9.908;2022-08-19T00:09:06;19.30;99.90
20364;DHT22;10340;53.664;9.908;2022-08-19T00:11:35;19.20;99.90
20364;DHT22;10340;53.664;9.908;2022-08-19T00:14:03;19.30;99.90
20364;DHT22;10340;53.664;9.908;2022-08-19T00:16:31;19.20;99.90
20364;DHT22;10340;53.664;9.908;2022-08-19T00:18:59;19.20;99.90
20364;DHT22;10340;53.664;9.908;2022-08-19T00:21:26;19.30;99.90
20364;DHT22;10340;53.664;9.908;2022-08-19T00:23:53;19.30;99.90
20364;DHT22;10340;53.664;9.908;2022-08-19T00:26:20;19.30;99.90
20364;DHT22;10340;53.664;9.908;2022-08-19T00:28:49;19.30;99.90
20364;DHT22;10340;53.664;9.908;2022-08-19T00:31:16;19.30;99.90
20364;DHT22;10340;53.664;9.908;2022-08-19T00:33:43;19.30;99.90
20364;DHT22;10340;53.664;9.908;2022-08-19T00:36:11;19.30;99.90
20364;DHT22;10340;53.664;9.908;2022-08-19T00:38:39;19.20;99.90
20364;DHT22;10340;53.664;9.908;2022-08-19T00:41:09;19.20;99.90
20364;DHT22;10340;53.664;9.908;2022-08-19T00:43:36;19.20;99.90
20364;DHT22;10340;53.664;9.908;2022-08-19T00:46:04;19.20;99.90
20364;DHT22;10340;53.664;9.908;2022-08-19T00:48:32;19.20;99.90
20364;DHT22;10340;53.664;9.908;2022-08-19T00:51:00;19.10;99.90
20364;DHT22;10340;53.664;9.908;2022-08-19T00:53:28;19.10;99.90
20364;DHT22;10340;53.664;9.908;2022-08-19T00:56:01;19.10;99.90
20364;DHT22;10340;53.664;9.908;2022-08-19T00:58:31;19.10;99.90
20364;DHT22;10340;53.664;9.908;2022-08-19T01:00:59;19.00;99.90
20364;DHT22;10340;53.664;9.908;2022-08-19T01:03:28;19.00;99.90
20364;DHT22;10340;53.664;9.908;2022-08-19T01:05:55;19.00;99.90
20364;DHT22;10340;53.664;9.908;2022-08-19T01:08:23;19.00;99.90
20364;DHT22;10340;53.664;9.908;2022-08-19T01:10:52;19.00;99.90
20364;DHT22;10340;53.664;9.908;2022-08-19T01:13:22;19.00;99.90
20364;DHT22;10340;53.664;9.908;2022-08-19T01:15:53;19.00;99.90
20364;DHT22;10340;53.664;9.908;2022-08-19T01:18:22;19.00;99.90
20364;DHT22;10340;53.664;9.908;2022-08-19T01:20:52;18.90;99.90
20364;DHT22;10340;53.664;9.908;2022-08-19T01:23:22;18.90;99.90
20364;DHT22;10340;53.664;9.908;2022-08-19T01:26:09;18.90;99.90
20364;DHT22;10340;53.664;9.908;2022-08-19T01:28:37;18.90;99.90
20364;DHT22;10340;53.664;9.908;2022-08-19T01:31:06;18.90;99.90
20364;DHT22;10340;53.664;9.908;2022-08-19T01:33:33;18.90;99.90
20364;DHT22;10340;53.664;9.908;2022-08-19T01:36:05;18.80;99.90
20364;DHT22;10340;53.664;9.908;2022-08-19T01:38:36;18.90;99.90
20364;DHT22;10340;53.664;9.908;2022-08-19T01:41:03;18.90;99.90
20364;DHT22;10340;53.664;9.908;2022-08-19T01:43:31;18.90;99.90
20364;DHT22;10340;53.664;9.908;2022-08-19T01:45:58;18.80;99.90
20364;DHT22;10340;53.664;9.908;2022-08-19T01:48:26;18.80;99.90
20364;DHT22;10340;53.664;9.908;2022-08-19T01:50:54;18.80;99.90
20364;DHT22;10340;53.664;9.908;2022-08-19T01:53:22;18.80;99.90
20364;DHT22;10340;53.664;9.908;2022-08-19T01:55:50;18.80;99.90
20364;DHT22;10340;53.664;9.908;2022-08-19T01:58:20;18.80;99.90
20364;DHT22;10340;53.664;9.908;2022-08-19T02:00:48;18.70;99.90
20364;DHT22;10340;53.664;9.908;2022-08-19T02:03:15;18.70;99.90
20364;DHT22;10340;53.664;9.908;2022-08-19T02:05:43;18.80;99.90
20364;DHT22;10340;53.664;9.908;2022-08-19T02:08:11;18.80;99.90
20364;DHT22;10340;53.664;9.908;2022-08-19T02:10:39;18.70;99.90
20364;DHT22;10340;53.664;9.908;2022-08-19T02:13:09;18.70;99.90
20364;DHT22;10340;53.664;9.908;2022-08-19T02:15:37;18.70;99.90
20364;DHT22;10340;53.664;9.908;2022-08-19T02:18:04;18.70;99.90
20364;DHT22;10340;53.664;9.908;2022-08-19T02:20:31;18.60;99.90
20364;DHT22;10340;53.664;9.908;2022-08-19T02:22:57;18.60;99.90
20364;DHT22;10340;53.664;9.908;2022-08-19T02:25:27;18.60;99.90
20364;DHT22;10340;53.664;9.908;2022-08-19T02:27:54;18.60;99.90
20364;DHT22;10340;53.664;9.908;2022-08-19T02:30:22;18.60;99.90
20364;DHT22;10340;53.664;9.908;2022-08-19T02:32:50;18.60;99.90
20364;DHT22;10340;53.664;9.908;2022-08-19T02:35:17;18.50;99.90
20364;DHT22;10340;53.664;9.908;2022-08-19T02:37:44;18.50;99.90
20364;DHT22;10340;53.664;9.908;2022-08-19T02:40:29;18.50;99.90
20364;DHT22;10340;53.664;9.908;2022-08-19T02:42:59;18.50;99.90
20364;DHT22;10340;53.664;9.908;2022-08-19T02:45:31;18.40;99.90
20364;DHT22;10340;53.664;9.908;2022-08-19T02:47:57;18.40;99.90
20364;DHT22;10340;53.664;9.908;2022-08-19T02:50:24;18.40;99.90
20364;DHT22;10340;53.664;9.908;2022-08-19T02:52:51;18.40;99.90
20364;DHT22;10340;53.664;9.908;2022-08-19T02:55:18;18.40;99.90
20364;DHT22;10340;53.664;9.908;2022-08-19T02:57:46;18.40;99.90
20364;DHT22;10340;53.664;9.908;2022-08-19T03:00:14;18.40;99.90
20364;DHT22;10340;53.664;9.908;2022-08-19T03:02:42;18.40;99.90
20364;DHT22;10340;53.664;9.908;2022-08-19T03:05:09;18.40;99.90
20364;DHT22;10340;53.664;9.908;2022-08-19T03:07:37;18.40;99.90
20364;DHT22;10340;53.664;9.908;2022-08-19T03:10:05;18.40;99.90
20364;DHT22;10340;53.664;9.908;2022-08-19T03:12:35;18.40;99.90
20364;DHT22;10340;53.664;9.908;2022-08-19T03:15:03;18.40;99.90
20364;DHT22;10340;53.664;9.908;2022-08-19T03:17:31;18.40;99.90
20364;DHT22;10340;53.664;9.908;2022-08-19T03:19:59;18.40;99.90
20364;DHT22;10340;53.664;9.908;2022-08-19T03:22:26;18.40;99.90
20364;DHT22;10340;53.664;9.908;2022-08-19T03:24:53;18.30;99.90
20364;DHT22;10340;53.664;9.908;2022-08-19T03:27:20;18.30;99.90
20364;DHT22;10340;53.664;9.908;2022-08-19T03:29:46;18.30;99.90
20364;DHT22;10340;53.664;9.908;2022-08-19T03:32:13;18.30;99.90
20364;DHT22;10340;53.664;9.908;2022-08-19T03:34:40;18.30;99.90
20364;DHT22;10340;53.664;9.908;2022-08-19T03:37:11;18.30;99.90
20364;DHT22;10340;53.664;9.908;2022-08-19T03:39:40;18.30;99.90
20364;DHT22;10340;53.664;9.908;2022-08-19T03:42:08;18.30;99.90
20364;DHT22;10340;53.664;9.908;2022-08-19T03:44:35;18.30;99.90
20364;DHT22;10340;53.664;9.908;2022-08-19T03:47:03;18.30;99.90
20364;DHT22;10340;53.664;9.908;2022-08-19T03:49:32;18.30;99.90
20364;DHT22;10340;53.664;9.908;2022-08-19T03:52:01;18.30;99.90
20364;DHT22;10340;53.664;9.908;2022-08-19T03:54:29;18.30;99.90
20364;DHT22;10340;53.664;9.908;2022-08-19T03:56:57;18.40;99.90
20364;DHT22;10340;53.664;9.908;2022-08-19T03:59:26;18.40;99.90
20364;DHT22;10340;53.664;9.908;2022-08-19T04:01:55;18.40;99.90
20364;DHT22;10340;53.664;9.908;2022-08-19T04:04:22;18.40;99.90
20364;DHT22;10340;53.664;9.908;2022-08-19T04:06:49;18.30;99.90
20364;DHT22;10340;53.664;9.908;2022-08-19T04:09:17;18.30;99.90
20364;DHT22;10340;53.664;9.908;2022-08-19T04:11:47;18.40;99.90
20364;DHT22;10340;53.664;9.908;2022-08-19T04:14:17;18.30;99.90
20364;DHT22;10340;53.664;9.908;2022-08-19T04:16:45;18.40;99.90
20364;DHT22;10340;53.664;9.908;2022-08-19T04:19:13;18.40;99.90
20364;DHT22;10340;53.664;9.908;2022-08-19T04:21:40;18.40;99.90
20364;DHT22;10340;53.664;9.908;2022-08-19T04:24:11;18.50;99.90
20364;DHT22;10340;53.664;9.908;2022-08-19T04:26:39;18.40;99.90
20364;DHT22;10340;53.664;9.908;2022-08-19T04:29:10;18.50;99.90
20364;DHT22;10340;53.664;9.908;2022-08-19T04:31:37;18.50;99.90
20364;DHT22;10340;53.664;9.908;2022-08-19T04:34:09;18.50;99.90
20364;DHT22;10340;53.664;9.908;2022-08-19T04:36:38;18.50;99.90
20364;DHT22;10340;53.664;9.908;2022-08-19T04:39:08;18.50;99.90
20364;DHT22;10340;53.664;9.908;2022-08-19T04:41:35;18.50;99.90
20364;DHT22;10340;53.664;9.908;2022-08-19T04:44:21;18.50;99.90
20364;DHT22;10340;53.664;9.908;2022-08-19T04:46:49;18.50;99.90
20364;DHT22;10340;53.664;9.908;2022-08-19T04:49:18;18.50;99.90
20364;DHT22;10340;53.664;9.908;2022-08-19T04:51:47;18.50;99.90
20364;DHT22;10340;53.664;9.908;2022-08-19T04:54:15;18.50;99.90
20364;DHT22;10340;53.664;9.908;2022-08-19T04:56:42;18.50;99.90
20364;DHT22;10340;53.664;9.908;2022-08-19T04:59:10;18.50;99.90
20364;DHT22;10340;53.664;9.908;2022-08-19T05:01:38;18.50;99.90
20364;DHT22;10340;53.664;9.908;2022-08-19T05:04:06;18.60;99.90
20364;DHT22;10340;53.664;9.908;2022-08-19T05:06:34;18.60;99.90
20364;DHT22;10340;53.664;9.908;2022-08-19T05:09:03;18.60;99.90
20364;DHT22;10340;53.664;9.908;2022-08-19T05:11:34;18.60;99.90
20364;DHT22;10340;53.664;9.908;2022-08-19T05:14:04;18.50;99.90
20364;DHT22;10340;53.664;9.908;2022-08-19T05:16:31;18.50;99.90
20364;DHT22;10340;53.664;9.908;2022-08-19T05:18:59;18.50;99.90
20364;DHT22;10340;53.664;9.908;2022-08-19T05:21:44;18.60;99.90
20364;DHT22;10340;53.664;9.908;2022-08-19T05:24:31;18.60;99.90
20364;DHT22;10340;53.664;9.908;2022-08-19T05:27:00;18.60;99.90
20364;DHT22;10340;53.664;9.908;2022-08-19T05:29:29;18.60;99.90
20364;DHT22;10340;53.664;9.908;2022-08-19T05:31:58;18.70;99.90
20364;DHT22;10340;53.664;9.908;2022-08-19T05:34:26;18.70;99.90
20364;DHT22;10340;53.664;9.908;2022-08-19T05:36:55;18.70;99.90
20364;DHT22;10340;53.664;9.908;2022-08-19T05:39:24;18.70;99.90
20364;DHT22;10340;53.664;9.908;2022-08-19T05:41:56;18.70;99.90
20364;DHT22;10340;53.664;9.908;2022-08-19T05:44:24;18.70;99.90
20364;DHT22;10340;53.664;9.908;2022-08-19T05:46:51;18.80;99.90
20364;DHT22;10340;53.664;9.908;2022-08-19T05:49:21;18.80;99.90
20364;DHT22;10340;53.664;9.908;2022-08-19T05:51:50;18.80;99.90
20364;DHT22;10340;53.664;9.908;2022-08-19T05:54:18;18.80;99.90
20364;DHT22;10340;53.664;9.908;2022-08-19T05:56:45;18.80;99.90
20364;DHT22;10340;53.664;9.908;2022-08-19T05:59:14;18.80;99.90
20364;DHT22;10340;53.664;9.908;2022-08-19T06:01:43;18.70;99.90
20364;DHT22;10340;53.664;9.908;2022-08-19T06:04:10;18.70;99.90
20364;DHT22;10340;53.664;9.908;2022-08-19T06:06:37;18.70;99.90
20364;DHT22;10340;53.664;9.908;2022-08-19T06:09:07;18.70;99.90
20364;DHT22;10340;53.664;9.908;2022-08-19T06:11:36;18.80;99.90
20364;DHT22;10340;53.664;9.908;2022-08-19T06:14:05;18.80;99.90
20364;DHT22;10340;53.664;9.908;2022-08-19T06:16:34;18.70;99.90
20364;DHT22;10340;53.664;9.908;2022-08-19T06:19:04;18.70;99.90
20364;DHT22;10340;53.664;9.908;2022-08-19T06:21:33;18.70;99.90
20364;DHT22;10340;53.664;9.908;2022-08-19T06:24:05;18.70;99.90
20364;DHT22;10340;53.664;9.908;2022-08-19T06:26:33;18.80;99.90
20364;DHT22;10340;53.664;9.908;2022-08-19T06:29:01;18.80;99.90
20364;DHT22;10340;53.664;9.908;2022-08-19T06:31:29;18.80;99.90
20364;DHT22;10340;53.664;9.908;2022-08-19T06:33:59;18.80;99.90
20364;DHT22;10340;53.664;9.908;2022-08-19T06:36:30;18.80;99.90
20364;DHT22;10340;53.664;9.908;2022-08-19T06:39:00;18.90;99.90
20364;DHT22;10340;53.664;9.908;2022-08-19T06:41:29;18.90;99.90
20364;DHT22;10340;53.664;9.908;2022-08-19T06:43:56;18.90;99.90
20364;DHT22;10340;53.664;9.908;2022-08-19T06:46:23;19.00;99.90
20364;DHT22;10340;53.664;9.908;2022-08-19T06:48:51;19.00;99.90
20364;DHT22;10340;53.664;9.908;2022-08-19T06:51:20;19.00;99.90
20364;DHT22;10340;53.664;9.908;2022-08-19T06:53:49;19.10;99.90
20364;DHT22;10340;53.664;9.908;2022-08-19T06:56:18;19.10;99.90
20364;DHT22;10340;53.664;9.908;2022-08-19T06:58:47;19.10;99.90
20364;DHT22;10340;53.664;9.908;2022-08-19T07:01:19;19.10;99.90
20364;DHT22;10340;53.664;9.908;2022-08-19T07:03:46;19.10;99.90
20364;DHT22;10340;53.664;9.908;2022-08-19T07:06:15;19.10;99.90
20364;DHT22;10340;53.664;9.908;2022-08-19T07:08:43;19.10;99.90
20364;DHT22;10340;53.664;9.908;2022-08-19T07:11:15;19.10;99.90
20364;DHT22;10340;53.664;9.908;2022-08-19T07:13:43;19.10;99.90
20364;DHT22;10340;53.664;9.908;2022-08-19T07:16:13;19.10;99.90
20364;DHT22;10340;53.664;9.908;2022-08-19T07:18:41;19.10;99.90
20364;DHT22;10340;53.664;9.908;2022-08-19T07:21:10;19.10;99.90
20364;DHT22;10340;53.664;9.908;2022-08-19T07:23:37;19.20;99.90
20364;DHT22;10340;53.664;9.908;2022-08-19T07:26:06;19.10;99.90
20364;DHT22;10340;53.664;9.908;2022-08-19T07:28:33;19.20;99.90
20364;DHT22;10340;53.664;9.908;2022-08-19T07:31:05;19.20;99.90
20364;DHT22;10340;53.664;9.908;2022-08-19T07:33:34;19.20;99.90
20364;DHT22;10340;53.664;9.908;2022-08-19T07:36:03;19.30;99.90
20364;DHT22;10340;53.664;9.908;2022-08-19T07:38:30;19.30;99.90
20364;DHT22;10340;53.664;9.908;2022-08-19T07:40:57;19.30;99.90
20364;DHT22;10340;53.664;9.908;2022-08-19T07:43:24;19.30;99.90
20364;DHT22;10340;53.664;9.908;2022-08-19T07:45:52;19.30;99.90
20364;DHT22;10340;53.664;9.908;2022-08-19T07:48:22;19.40;99.90
20364;DHT22;10340;53.664;9.908;2022-08-19T07:50:52;19.40;99.90
20364;DHT22;10340;53.664;9.908;2022-08-19T07:53:20;19.40;99.90
20364;DHT22;10340;53.664;9.908;2022-08-19T07:55:47;19.40;99.90
20364;DHT22;10340;53.664;9.908;2022-08-19T07:58:16;19.40;99.90
20364;DHT22;10340;53.664;9.908;2022-08-19T08:00:46;19.40;99.90
20364;DHT22;10340;53.664;9.908;2022-08-19T08:03:14;19.40;99.90
20364;DHT22;10340;53.664;9.908;2022-08-19T08:05:41;19.40;99.90
20364;DHT22;10340;53.664;9.908;2022-08-19T08:08:27;19.40;99.90
20364;DHT22;10340;53.664;9.908;2022-08-19T08:11:12;19.50;99.90
20364;DHT22;10340;53.664;9.908;2022-08-19T08:13:39;19.50;99.90
20364;DHT22;10340;53.664;9.908;2022-08-19T08:16:06;19.50;99.90
20364;DHT22;10340;53.664;9.908;2022-08-19T08:18:33;19.50;99.90
20364;DHT22;10340;53.664;9.908;2022-08-19T08:21:07;19.50;99.90
20364;DHT22;10340;53.664;9.908;2022-08-19T08:23:35;19.50;99.90
20364;DHT22;10340;53.664;9.908;2022-08-19T08:26:02;19.50;99.90
20364;DHT22;10340;53.664;9.908;2022-08-19T08:28:30;19.60;99.90
20364;DHT22;10340;53.664;9.908;2022-08-19T08:30:57;19.60;99.90
20364;DHT22;10340;53.664;9.908;2022-08-19T08:33:27;19.60;99.90
20364;DHT22;10340;53.664;9.908;2022-08-19T08:35:55;19.60;99.90
20364;DHT22;10340;53.664;9.908;2022-08-19T08:38:22;19.70;99.90
20364;DHT22;10340;53.664;9.908;2022-08-19T08:40:53;19.70;99.90
20364;DHT22;10340;53.664;9.908;2022-08-19T08:43:34;19.70;99.90
20364;DHT22;10340;53.664;9.908;2022-08-19T08:46:04;19.70;99.90
20364;DHT22;10340;53.664;9.908;2022-08-19T08:48:37;19.70;99.90
20364;DHT22;10340;53.664;9.908;2022-08-19T08:51:10;19.70;99.90
20364;DHT22;10340;53.664;9.908;2022-08-19T08:53:38;19.70;99.90
20364;DHT22;10340;53.664;9.908;2022-08-19T08:56:08;19.70;99.90
20364;DHT22;10340;53.664;9.908;2022-08-19T08:58:45;19.70;99.90
20364;DHT22;10340;53.664;9.908;2022-08-19T09:01:14;19.80;99.90
20364;DHT22;10340;53.664;9.908;2022-08-19T09:03:43;19.70;99.90
20364;DHT22;10340;53.664;9.908;2022-08-19T09:06:17;19.70;99.90
20364;DHT22;10340;53.664;9.908;2022-08-19T09:08:56;19.70;99.90
20364;DHT22;10340;53.664;9.908;2022-08-19T09:11:40;19.60;99.90
20364;DHT22;10340;53.664;9.908;2022-08-19T09:14:17;19.60;99.90
20364;DHT22;10340;53.664;9.908;2022-08-19T09:16:47;19.70;99.90
20364;DHT22;10340;53.664;9.908;2022-08-19T09:19:17;19.70;99.90
20364;DHT22;10340;53.664;9.908;2022-08-19T09:21:44;19.70;99.90
20364;DHT22;10340;53.664;9.908;2022-08-19T09:24:11;19.70;99.90
20364;DHT22;10340;53.664;9.908;2022-08-19T09:26:40;19.70;99.90
20364;DHT22;10340;53.664;9.908;2022-08-19T09:29:09;19.70;99.90
20364;DHT22;10340;53.664;9.908;2022-08-19T09:31:36;19.70;99.90
20364;DHT22;10340;53.664;9.908;2022-08-19T09:34:03;19.70;99.90
20364;DHT22;10340;53.664;9.908;2022-08-19T09:36:31;19.70;99.90
20364;DHT22;10340;53.664;9.908;2022-08-19T09:39:02;19.70;99.90
20364;DHT22;10340;53.664;9.908;2022-08-19T09:41:29;19.70;99.90
20364;DHT22;10340;53.664;9.908;2022-08-19T09:43:58;19.70;99.90
20364;DHT22;10340;53.664;9.908;2022-08-19T09:46:28;19.80;99.90
20364;DHT22;10340;53.664;9.908;2022-08-19T09:49:00;19.80;99.90
20364;DHT22;10340;53.664;9.908;2022-08-19T09:51:27;19.80;99.90
20364;DHT22;10340;53.664;9.908;2022-08-19T09:53:59;19.80;99.90
20364;DHT22;10340;53.664;9.908;2022-08-19T09:56:26;19.80;99.90
20364;DHT22;10340;53.664;9.908;2022-08-19T09:58:53;19.90;99.90
20364;DHT22;10340;53.664;9.908;2022-08-19T10:01:24;20.00;99.90
20364;DHT22;10340;53.664;9.908;2022-08-19T10:03:52;20.00;99.90
20364;DHT22;10340;53.664;9.908;2022-08-19T10:06:20;20.00;99.90
20364;DHT22;10340;53.664;9.908;2022-08-19T10:08:48;20.00;99.90
20364;DHT22;10340;53.664;9.908;2022-08-19T10:11:17;19.90;99.90
20364;DHT22;10340;53.664;9.908;2022-08-19T10:13:44;19.90;99.90
20364;DHT22;10340;53.664;9.908;2022-08-19T10:16:13;20.00;99.90
20364;DHT22;10340;53.664;9.908;2022-08-19T10:18:42;20.00;99.90
20364;DHT22;10340;53.664;9.908;2022-08-19T10:21:11;20.00;99.90
20364;DHT22;10340;53.664;9.908;2022-08-19T10:23:41;20.00;99.90
20364;DHT22;10340;53.664;9.908;2022-08-19T10:26:12;20.00;99.90
20364;DHT22;10340;53.664;9.908;2022-08-19T10:28:39;20.00;99.90
20364;DHT22;10340;53.664;9.908;2022-08-19T10:31:09;20.00;99.90
20364;DHT22;10340;53.664;9.908;2022-08-19T10:33:37;20.00;99.90
20364;DHT22;10340;53.664;9.908;2022-08-19T10:36:09;19.90;99.90
20364;DHT22;10340;53.664;9.908;2022-08-19T10:38:37;19.90;99.90
20364;DHT22;10340;53.664;9.908;2022-08-19T10:41:09;19.90;99.90
20364;DHT22;10340;53.664;9.908;2022-08-19T10:43:36;19.90;99.90
20364;DHT22;10340;53.664;9.908;2022-08-19T10:46:04;19.90;99.90
20364;DHT22;10340;53.664;9.908;2022-08-19T10:48:32;20.00;99.90
20364;DHT22;10340;53.664;9.908;2022-08-19T10:50:59;20.20;99.90
20364;DHT22;10340;53.664;9.908;2022-08-19T10:53:45;20.30;99.90
20364;DHT22;10340;53.664;9.908;2022-08-19T10:56:12;20.40;99.90
20364;DHT22;10340;53.664;9.908;2022-08-19T10:58:57;20.40;99.90
20364;DHT22;10340;53.664;9.908;2022-08-19T11:01:24;20.60;99.90
20364;DHT22;10340;53.664;9.908;2022-08-19T11:03:51;20.80;99.90
20364;DHT22;10340;53.664;9.908;2022-08-19T11:06:18;20.90;99.90
20364;DHT22;10340;53.664;9.908;2022-08-19T11:08:47;21.10;99.90
20364;DHT22;10340;53.664;9.908;2022-08-19T11:11:14;21.40;99.90
20364;DHT22;10340;53.664;9.908;2022-08-19T11:13:43;21.60;99.90
20364;DHT22;10340;53.664;9.908;2022-08-19T11:16:14;21.80;99.90
20364;DHT22;10340;53.664;9.908;2022-08-19T11:18:46;22.00;99.90
20364;DHT22;10340;53.664;9.908;2022-08-19T11:21:20;22.10;99.90
20364;DHT22;10340;53.664;9.908;2022-08-19T11:23:50;22.10;99.90
20364;DHT22;10340;53.664;9.908;2022-08-19T11:26:18;22.10;99.90
20364;DHT22;10340;53.664;9.908;2022-08-19T11:28:46;22.10;99.90
20364;DHT22;10340;53.664;9.908;2022-08-19T11:31:15;22.30;99.90
20364;DHT22;10340;53.664;9.908;2022-08-19T11:33:43;22.40;99.90
20364;DHT22;10340;53.664;9.908;2022-08-19T11:36:10;22.50;99.90
20364;DHT22;10340;53.664;9.908;2022-08-19T11:38:38;22.40;99.90
20364;DHT22;10340;53.664;9.908;2022-08-19T11:41:07;22.40;99.90
20364;DHT22;10340;53.664;9.908;2022-08-19T11:43:36;22.30;99.90
20364;DHT22;10340;53.664;9.908;2022-08-19T11:46:06;22.30;99.90
20364;DHT22;10340;53.664;9.908;2022-08-19T11:48:33;22.30;99.90
20364;DHT22;10340;53.664;9.908;2022-08-19T11:51:04;22.20;99.90
20364;DHT22;10340;53.664;9.908;2022-08-19T11:53:32;22.10;99.90
20364;DHT22;10340;53.664;9.908;2022-08-19T11:55:59;22.10;99.90
20364;DHT22;10340;53.664;9.908;2022-08-19T11:58:27;22.00;99.90
20364;DHT22;10340;53.664;9.908;2022-08-19T12:00:55;22.00;99.90
20364;DHT22;10340;53.664;9.908;2022-08-19T12:03:22;22.10;99.90
20364;DHT22;10340;53.664;9.908;2022-08-19T12:05:50;22.30;99.90
20364;DHT22;10340;53.664;9.908;2022-08-19T12:08:17;22.50;99.90
20364;DHT22;10340;53.664;9.908;2022-08-19T12:10:44;22.80;99.90
20364;DHT22;10340;53.664;9.908;2022-08-19T12:13:13;23.00;99.90
20364;DHT22;10340;53.664;9.908;2022-08-19T12:15:46;23.20;99.90
20364;DHT22;10340;53.664;9.908;2022-08-19T12:18:14;23.20;99.90
20364;DHT22;10340;53.664;9.908;2022-08-19T12:20:42;23.30;99.90
20364;DHT22;10340;53.664;9.908;2022-08-19T12:23:10;23.30;99.90
20364;DHT22;10340;53.664;9.908;2022-08-19T12:25:37;23.30;99.90
20364;DHT22;10340;53.664;9.908;2022-08-19T12:28:04;23.30;99.90
20364;DHT22;10340;53.664;9.908;2022-08-19T12:30:31;23.30;99.90
20364;DHT22;10340;53.664;9.908;2022-08-19T12:32:59;23.40;99.90
20364;DHT22;10340;53.664;9.908;2022-08-19T12:35:28;23.50;99.90
20364;DHT22;10340;53.664;9.908;2022-08-19T12:37:56;23.50;99.90
20364;DHT22;10340;53.664;9.908;2022-08-19T12:40:23;23.40;99.90
20364;DHT22;10340;53.664;9.908;2022-08-19T12:42:50;23.50;99.90
20364;DHT22;10340;53.664;9.908;2022-08-19T12:45:17;23.50;99.90
20364;DHT22;10340;53.664;9.908;2022-08-19T12:47:44;23.50;99.90
20364;DHT22;10340;53.664;9.908;2022-08-19T12:50:13;23.50;99.90
20364;DHT22;10340;53.664;9.908;2022-08-19T12:52:40;23.50;99.90
20364;DHT22;10340;53.664;9.908;2022-08-19T12:55:08;23.40;99.90
20364;DHT22;10340;53.664;9.908;2022-08-19T12:57:36;23.30;99.90
20364;DHT22;10340;53.664;9.908;2022-08-19T13:00:07;23.20;99.90
20364;DHT22;10340;53.664;9.908;2022-08-19T13:02:36;23.40;99.90
20364;DHT22;10340;53.664;9.908;2022-08-19T13:05:04;23.50;99.90
20364;DHT22;10340;53.664;9.908;2022-08-19T13:07:33;23.60;99.90
20364;DHT22;10340;53.664;9.908;2022-08-19T13:10:00;23.70;99.90
20364;DHT22;10340;53.664;9.908;2022-08-19T13:12:27;23.80;99.90
20364;DHT22;10340;53.664;9.908;2022-08-19T13:14:55;24.00;99.90
20364;DHT22;10340;53.664;9.908;2022-08-19T13:17:22;24.00;99.90
20364;DHT22;10340;53.664;9.908;2022-08-19T13:19:49;24.00;99.90
20364;DHT22;10340;53.664;9.908;2022-08-19T13:22:17;24.10;99.90
20364;DHT22;10340;53.664;9.908;2022-08-19T13:24:45;24.10;99.90
20364;DHT22;10340;53.664;9.908;2022-08-19T13:27:12;24.10;99.90
20364;DHT22;10340;53.664;9.908;2022-08-19T13:29:39;24.10;99.90
20364;DHT22;10340;53.664;9.908;2022-08-19T13:32:24;24.10;99.90
20364;DHT22;10340;53.664;9.908;2022-08-19T13:35:08;24.20;99.90
20364;DHT22;10340;53.664;9.908;2022-08-19T13:37:35;24.10;99.90
20364;DHT22;10340;53.664;9.908;2022-08-19T13:40:12;24.10;99.90
20364;DHT22;10340;53.664;9.908;2022-08-19T13:42:41;24.10;99.90
20364;DHT22;10340;53.664;9.908;2022-08-19T13:45:09;24.20;99.90
20364;DHT22;10340;53.664;9.908;2022-08-19T13:47:36;24.20;99.90
20364;DHT22;10340;53.664;9.908;2022-08-19T13:50:10;24.30;99.90
20364;DHT22;10340;53.664;9.908;2022-08-19T13:52:38;24.30;99.90
20364;DHT22;10340;53.664;9.908;2022-08-19T13:55:05;24.10;99.90
20364;DHT22;10340;53.664;9.908;2022-08-19T13:57:34;24.00;99.90
20364;DHT22;10340;53.664;9.908;2022-08-19T14:00:06;23.90;99.90
20364;DHT22;10340;53.664;9.908;2022-08-19T14:02:33;23.70;99.90
20364;DHT22;10340;53.664;9.908;2022-08-19T14:05:00;23.60;99.90
20364;DHT22;10340;53.664;9.908;2022-08-19T14:07:27;23.60;99.90
20364;DHT22;10340;53.664;9.908;2022-08-19T14:09:54;23.50;99.90
20364;DHT22;10340;53.664;9.908;2022-08-19T14:12:21;23.40;99.90
20364;DHT22;10340;53.664;9.908;2022-08-19T14:14:50;23.30;99.90
20364;DHT22;10340;53.664;9.908;2022-08-19T14:17:16;23.20;99.90
20364;DHT22;10340;53.664;9.908;2022-08-19T14:19:44;23.30;99.90
20364;DHT22;10340;53.664;9.908;2022-08-19T14:22:11;23.20;99.90
20364;DHT22;10340;53.664;9.908;2022-08-19T14:24:38;23.30;99.90
20364;DHT22;10340;53.664;9.908;2022-08-19T14:27:06;23.40;99.90
20364;DHT22;10340;53.664;9.908;2022-08-19T14:29:33;23.50;99.90
20364;DHT22;10340;53.664;9.908;2022-08-19T14:32:02;23.80;99.90
20364;DHT22;10340;53.664;9.908;2022-08-19T14:34:29;24.00;99.90
20364;DHT22;10340;53.664;9.908;2022-08-19T14:36:57;24.30;99.90
20364;DHT22;10340;53.664;9.908;2022-08-19T14:39:25;24.50;99.90
20364;DHT22;10340;53.664;9.908;2022-08-19T14:41:52;24.60;99.90
20364;DHT22;10340;53.664;9.908;2022-08-19T14:44:19;24.70;99.90
20364;DHT22;10340;53.664;9.908;2022-08-19T14:46:49;24.70;99.90
20364;DHT22;10340;53.664;9.908;2022-08-19T14:49:17;24.50;99.90
20364;DHT22;10340;53.664;9.908;2022-08-19T14:51:44;24.30;99.90
20364;DHT22;10340;53.664;9.908;2022-08-19T14:54:12;24.10;99.90
20364;DHT22;10340;53.664;9.908;2022-08-19T14:56:40;24.10;99.90
20364;DHT22;10340;53.664;9.908;2022-08-19T14:59:07;24.20;99.90
20364;DHT22;10340;53.664;9.908;2022-08-19T15:01:34;24.20;99.90
20364;DHT22;10340;53.664;9.908;2022-08-19T15:04:01;24.20;99.90
20364;DHT22;10340;53.664;9.908;2022-08-19T15:06:30;24.30;99.90
20364;DHT22;10340;53.664;9.908;2022-08-19T15:08:57;24.30;99.90
20364;DHT22;10340;53.664;9.908;2022-08-19T15:11:26;24.20;99.90
20364;DHT22;10340;53.664;9.908;2022-08-19T15:13:54;24.30;99.90
20364;DHT22;10340;53.664;9.908;2022-08-19T15:16:22;24.40;99.90
20364;DHT22;10340;53.664;9.908;2022-08-19T15:18:53;24.40;99.90
20364;DHT22;10340;53.664;9.908;2022-08-19T15:21:21;24.40;99.90
20364;DHT22;10340;53.664;9.908;2022-08-19T15:23:51;24.50;99.90
20364;DHT22;10340;53.664;9.908;2022-08-19T15:26:19;24.50;99.90
20364;DHT22;10340;53.664;9.908;2022-08-19T15:28:46;24.50;99.90
20364;DHT22;10340;53.664;9.908;2022-08-19T15:31:18;24.40;99.90
20364;DHT22;10340;53.664;9.908;2022-08-19T15:33:45;24.30;99.90
20364;DHT22;10340;53.664;9.908;2022-08-19T15:36:12;24.30;99.90
20364;DHT22;10340;53.664;9.908;2022-08-19T15:38:39;24.20;99.90
20364;DHT22;10340;53.664;9.908;2022-08-19T15:41:18;24.10;99.90